Terminal Aerodrome Forecast
Issued by NWS Shreveport, LA

Home | Current Version | Previous Version | Text Only | Print | Product List | Glossary On
Versions: 1 2 3 4 5 6 7 8 9 10 11 12 13 14 15 16
000
FTUS44 KSHV 282300 RRA
TAFTXK
TAF
KTXK 282341Z 2900/2924 08003KT P6SM OVC025
     FM290300 VRB03KT P6SM OVC050
     FM290900 VRB03KT 4SM BR BKN006
     FM291500 09004KT P6SM BKN010
     FM291800 09004KT P6SM BKN015=

USA.gov is the U.S. government's official web portal to all federal, state and local government web resources and services.